sensor_id;sensor_type;location;lat;lon;timestamp;P1;durP1;ratioP1;P2;durP2;ratioP2
65162;SDS011;51751;55.714;37.436;2023-05-16T00:00:42;23.65;;;6.80;;
65162;SDS011;51751;55.714;37.436;2023-05-16T00:03:08;25.45;;;8.15;;
65162;SDS011;51751;55.714;37.436;2023-05-16T00:05:36;41.17;;;8.30;;
65162;SDS011;51751;55.714;37.436;2023-05-16T00:08:03;32.92;;;7.75;;
65162;SDS011;51751;55.714;37.436;2023-05-16T00:10:30;25.27;;;6.07;;
65162;SDS011;51751;55.714;37.436;2023-05-16T00:12:56;28.00;;;6.55;;
65162;SDS011;51751;55.714;37.436;2023-05-16T00:15:22;28.55;;;6.13;;
65162;SDS011;51751;55.714;37.436;2023-05-16T00:17:49;22.58;;;6.15;;
65162;SDS011;51751;55.714;37.436;2023-05-16T00:20:16;12.50;;;5.25;;
65162;SDS011;51751;55.714;37.436;2023-05-16T00:22:43;18.40;;;5.53;;
65162;SDS011;51751;55.714;37.436;2023-05-16T00:25:10;25.98;;;5.30;;
65162;SDS011;51751;55.714;37.436;2023-05-16T00:27:36;17.45;;;5.30;;
65162;SDS011;51751;55.714;37.436;2023-05-16T00:30:02;30.00;;;6.63;;
65162;SDS011;51751;55.714;37.436;2023-05-16T00:32:33;21.58;;;5.53;;
65162;SDS011;51751;55.714;37.436;2023-05-16T00:35:17;21.13;;;4.63;;
65162;SDS011;51751;55.714;37.436;2023-05-16T00:37:43;17.85;;;5.13;;
65162;SDS011;51751;55.714;37.436;2023-05-16T00:40:09;20.63;;;5.72;;
65162;SDS011;51751;55.714;37.436;2023-05-16T00:42:35;24.35;;;6.75;;
65162;SDS011;51751;55.714;37.436;2023-05-16T00:45:02;17.98;;;6.22;;
65162;SDS011;51751;55.714;37.436;2023-05-16T00:47:30;21.10;;;6.18;;
65162;SDS011;51751;55.714;37.436;2023-05-16T00:49:55;40.05;;;6.63;;
65162;SDS011;51751;55.714;37.436;2023-05-16T00:52:21;12.65;;;4.57;;
65162;SDS011;51751;55.714;37.436;2023-05-16T00:54:47;15.02;;;5.50;;
65162;SDS011;51751;55.714;37.436;2023-05-16T00:57:13;16.65;;;5.50;;
65162;SDS011;51751;55.714;37.436;2023-05-16T00:59:42;21.40;;;6.72;;
65162;SDS011;51751;55.714;37.436;2023-05-16T01:02:10;20.70;;;5.70;;
65162;SDS011;51751;55.714;37.436;2023-05-16T01:04:37;24.65;;;6.60;;
65162;SDS011;51751;55.714;37.436;2023-05-16T01:07:03;29.77;;;6.88;;
65162;SDS011;51751;55.714;37.436;2023-05-16T01:09:33;24.73;;;6.57;;
65162;SDS011;51751;55.714;37.436;2023-05-16T01:26:28;24.45;;;7.55;;
65162;SDS011;51751;55.714;37.436;2023-05-16T01:28:54;21.13;;;7.03;;
65162;SDS011;51751;55.714;37.436;2023-05-16T01:31:21;23.92;;;6.50;;
65162;SDS011;51751;55.714;37.436;2023-05-16T01:33:48;13.77;;;5.88;;
65162;SDS011;51751;55.714;37.436;2023-05-16T01:38:45;19.10;;;5.47;;
65162;SDS011;51751;55.714;37.436;2023-05-16T01:41:26;16.85;;;5.82;;
65162;SDS011;51751;55.714;37.436;2023-05-16T01:43:57;32.40;;;8.90;;
65162;SDS011;51751;55.714;37.436;2023-05-16T01:46:26;26.27;;;6.90;;
65162;SDS011;51751;55.714;37.436;2023-05-16T01:51:21;21.77;;;8.93;;
65162;SDS011;51751;55.714;37.436;2023-05-16T01:53:50;24.75;;;8.82;;
65162;SDS011;51751;55.714;37.436;2023-05-16T01:56:17;21.08;;;7.38;;
65162;SDS011;51751;55.714;37.436;2023-05-16T01:58:43;18.60;;;5.88;;
65162;SDS011;51751;55.714;37.436;2023-05-16T02:01:11;28.10;;;7.03;;
65162;SDS011;51751;55.714;37.436;2023-05-16T02:03:37;18.45;;;6.03;;
65162;SDS011;51751;55.714;37.436;2023-05-16T02:06:03;17.85;;;5.63;;
65162;SDS011;51751;55.714;37.436;2023-05-16T02:08:29;17.52;;;5.03;;
65162;SDS011;51751;55.714;37.436;2023-05-16T02:10:56;15.00;;;5.25;;
65162;SDS011;51751;55.714;37.436;2023-05-16T02:13:23;11.73;;;5.25;;
65162;SDS011;51751;55.714;37.436;2023-05-16T02:15:49;32.72;;;7.22;;
65162;SDS011;51751;55.714;37.436;2023-05-16T02:18:16;23.60;;;6.45;;
65162;SDS011;51751;55.714;37.436;2023-05-16T02:20:43;22.33;;;6.07;;
65162;SDS011;51751;55.714;37.436;2023-05-16T02:23:09;13.80;;;4.82;;
65162;SDS011;51751;55.714;37.436;2023-05-16T02:25:35;29.65;;;6.13;;
65162;SDS011;51751;55.714;37.436;2023-05-16T02:28:01;24.17;;;6.75;;
65162;SDS011;51751;55.714;37.436;2023-05-16T02:30:27;16.45;;;5.38;;
65162;SDS011;51751;55.714;37.436;2023-05-16T02:32:53;22.65;;;5.45;;
65162;SDS011;51751;55.714;37.436;2023-05-16T02:35:19;17.85;;;6.10;;
65162;SDS011;51751;55.714;37.436;2023-05-16T02:37:45;16.17;;;5.95;;
65162;SDS011;51751;55.714;37.436;2023-05-16T02:40:11;21.17;;;7.03;;
65162;SDS011;51751;55.714;37.436;2023-05-16T02:42:37;19.50;;;5.47;;
65162;SDS011;51751;55.714;37.436;2023-05-16T02:45:03;18.25;;;5.78;;
65162;SDS011;51751;55.714;37.436;2023-05-16T02:47:32;18.70;;;6.18;;
65162;SDS011;51751;55.714;37.436;2023-05-16T02:49:59;26.70;;;6.40;;
65162;SDS011;51751;55.714;37.436;2023-05-16T02:52:25;27.45;;;6.07;;
65162;SDS011;51751;55.714;37.436;2023-05-16T02:54:51;20.92;;;6.15;;
65162;SDS011;51751;55.714;37.436;2023-05-16T02:57:17;17.00;;;6.03;;
65162;SDS011;51751;55.714;37.436;2023-05-16T02:59:43;20.00;;;6.47;;
65162;SDS011;51751;55.714;37.436;2023-05-16T03:02:09;27.90;;;7.45;;
65162;SDS011;51751;55.714;37.436;2023-05-16T03:04:36;18.13;;;6.05;;
65162;SDS011;51751;55.714;37.436;2023-05-16T03:07:02;13.38;;;6.03;;
65162;SDS011;51751;55.714;37.436;2023-05-16T03:09:28;22.42;;;6.25;;
65162;SDS011;51751;55.714;37.436;2023-05-16T03:11:55;16.48;;;6.50;;
65162;SDS011;51751;55.714;37.436;2023-05-16T03:14:21;21.05;;;6.07;;
65162;SDS011;51751;55.714;37.436;2023-05-16T03:16:47;18.75;;;6.60;;
65162;SDS011;51751;55.714;37.436;2023-05-16T03:19:13;17.25;;;6.30;;
65162;SDS011;51751;55.714;37.436;2023-05-16T03:21:39;16.75;;;6.35;;
65162;SDS011;51751;55.714;37.436;2023-05-16T03:24:05;20.95;;;6.18;;
65162;SDS011;51751;55.714;37.436;2023-05-16T03:26:34;19.35;;;5.55;;
65162;SDS011;51751;55.714;37.436;2023-05-16T03:29:00;15.75;;;5.70;;
65162;SDS011;51751;55.714;37.436;2023-05-16T03:31:27;18.38;;;4.95;;
65162;SDS011;51751;55.714;37.436;2023-05-16T03:33:53;16.45;;;4.05;;
65162;SDS011;51751;55.714;37.436;2023-05-16T03:36:20;12.10;;;4.72;;
65162;SDS011;51751;55.714;37.436;2023-05-16T03:38:46;11.13;;;4.53;;
65162;SDS011;51751;55.714;37.436;2023-05-16T03:41:13;19.77;;;4.38;;
65162;SDS011;51751;55.714;37.436;2023-05-16T03:43:39;17.88;;;5.38;;
65162;SDS011;51751;55.714;37.436;2023-05-16T03:46:05;15.23;;;5.25;;
65162;SDS011;51751;55.714;37.436;2023-05-16T03:48:30;20.00;;;5.30;;
65162;SDS011;51751;55.714;37.436;2023-05-16T03:50:57;16.73;;;5.38;;
65162;SDS011;51751;55.714;37.436;2023-05-16T03:53:22;11.38;;;4.90;;
65162;SDS011;51751;55.714;37.436;2023-05-16T03:55:48;17.33;;;5.93;;
65162;SDS011;51751;55.714;37.436;2023-05-16T03:58:15;32.58;;;5.45;;
65162;SDS011;51751;55.714;37.436;2023-05-16T04:00:41;9.75;;;4.28;;
65162;SDS011;51751;55.714;37.436;2023-05-16T04:03:06;16.98;;;5.22;;
65162;SDS011;51751;55.714;37.436;2023-05-16T04:05:33;14.68;;;4.82;;
65162;SDS011;51751;55.714;37.436;2023-05-16T04:07:58;20.92;;;5.22;;
65162;SDS011;51751;55.714;37.436;2023-05-16T04:10:43;17.27;;;4.95;;
65162;SDS011;51751;55.714;37.436;2023-05-16T04:13:08;17.92;;;4.57;;
65162;SDS011;51751;55.714;37.436;2023-05-16T04:15:34;16.40;;;4.00;;
65162;SDS011;51751;55.714;37.436;2023-05-16T04:18:00;17.73;;;4.20;;
65162;SDS011;51751;55.714;37.436;2023-05-16T04:20:26;24.02;;;4.00;;
65162;SDS011;51751;55.714;37.436;2023-05-16T04:22:52;14.10;;;3.70;;
65162;SDS011;51751;55.714;37.436;2023-05-16T04:25:18;21.23;;;4.10;;
65162;SDS011;51751;55.714;37.436;2023-05-16T04:27:44;4.72;;;2.40;;
65162;SDS011;51751;55.714;37.436;2023-05-16T04:30:10;12.75;;;2.83;;
65162;SDS011;51751;55.714;37.436;2023-05-16T04:32:36;4.57;;;1.85;;
65162;SDS011;51751;55.714;37.436;2023-05-16T04:35:02;5.20;;;1.70;;
65162;SDS011;51751;55.714;37.436;2023-05-16T04:37:30;9.00;;;1.90;;
65162;SDS011;51751;55.714;37.436;2023-05-16T04:39:56;8.40;;;1.80;;
65162;SDS011;51751;55.714;37.436;2023-05-16T04:42:21;9.60;;;2.10;;
65162;SDS011;51751;55.714;37.436;2023-05-16T04:44:48;4.45;;;1.90;;
65162;SDS011;51751;55.714;37.436;2023-05-16T04:47:14;6.90;;;1.65;;
65162;SDS011;51751;55.714;37.436;2023-05-16T04:49:40;6.70;;;1.85;;
65162;SDS011;51751;55.714;37.436;2023-05-16T04:52:06;7.75;;;1.40;;
65162;SDS011;51751;55.714;37.436;2023-05-16T04:54:33;29.48;;;7.10;;
65162;SDS011;51751;55.714;37.436;2023-05-16T04:56:58;3.83;;;1.70;;
65162;SDS011;51751;55.714;37.436;2023-05-16T04:59:25;9.85;;;1.73;;
65162;SDS011;51751;55.714;37.436;2023-05-16T05:01:51;7.63;;;2.22;;
65162;SDS011;51751;55.714;37.436;2023-05-16T05:04:17;7.88;;;1.98;;
65162;SDS011;51751;55.714;37.436;2023-05-16T05:06:43;19.58;;;2.50;;
65162;SDS011;51751;55.714;37.436;2023-05-16T05:09:08;11.43;;;2.00;;
65162;SDS011;51751;55.714;37.436;2023-05-16T05:11:35;11.98;;;1.90;;
65162;SDS011;51751;55.714;37.436;2023-05-16T05:14:01;4.35;;;1.90;;
65162;SDS011;51751;55.714;37.436;2023-05-16T05:16:28;4.80;;;1.77;;
65162;SDS011;51751;55.714;37.436;2023-05-16T05:18:54;9.35;;;1.73;;
65162;SDS011;51751;55.714;37.436;2023-05-16T05:21:20;4.95;;;1.58;;
65162;SDS011;51751;55.714;37.436;2023-05-16T05:23:46;6.75;;;1.70;;
65162;SDS011;51751;55.714;37.436;2023-05-16T05:26:14;2.08;;;1.40;;
65162;SDS011;51751;55.714;37.436;2023-05-16T05:28:40;3.83;;;1.50;;
65162;SDS011;51751;55.714;37.436;2023-05-16T05:31:05;7.68;;;1.70;;
65162;SDS011;51751;55.714;37.436;2023-05-16T05:33:32;3.00;;;1.83;;
65162;SDS011;51751;55.714;37.436;2023-05-16T05:35:58;9.00;;;2.33;;
65162;SDS011;51751;55.714;37.436;2023-05-16T05:38:24;6.72;;;1.52;;
65162;SDS011;51751;55.714;37.436;2023-05-16T05:40:50;3.20;;;1.67;;
65162;SDS011;51751;55.714;37.436;2023-05-16T05:43:16;4.00;;;1.60;;
65162;SDS011;51751;55.714;37.436;2023-05-16T05:45:42;8.68;;;2.00;;
65162;SDS011;51751;55.714;37.436;2023-05-16T05:48:08;4.68;;;1.50;;
65162;SDS011;51751;55.714;37.436;2023-05-16T05:50:35;2.53;;;1.42;;
65162;SDS011;51751;55.714;37.436;2023-05-16T05:53:03;7.35;;;1.70;;
65162;SDS011;51751;55.714;37.436;2023-05-16T05:55:28;3.72;;;1.50;;
65162;SDS011;51751;55.714;37.436;2023-05-16T05:57:54;4.80;;;1.50;;
65162;SDS011;51751;55.714;37.436;2023-05-16T06:00:20;10.73;;;2.17;;
65162;SDS011;51751;55.714;37.436;2023-05-16T06:02:46;5.90;;;1.88;;
65162;SDS011;51751;55.714;37.436;2023-05-16T06:05:13;10.70;;;1.45;;
65162;SDS011;51751;55.714;37.436;2023-05-16T06:07:38;11.10;;;1.92;;
65162;SDS011;51751;55.714;37.436;2023-05-16T06:10:04;7.93;;;1.83;;
65162;SDS011;51751;55.714;37.436;2023-05-16T06:12:33;8.13;;;1.70;;
65162;SDS011;51751;55.714;37.436;2023-05-16T06:14:59;5.20;;;1.73;;
65162;SDS011;51751;55.714;37.436;2023-05-16T06:17:25;5.05;;;1.63;;
65162;SDS011;51751;55.714;37.436;2023-05-16T06:19:50;5.65;;;1.70;;
65162;SDS011;51751;55.714;37.436;2023-05-16T06:22:16;6.72;;;1.75;;
65162;SDS011;51751;55.714;37.436;2023-05-16T06:24:42;3.50;;;1.17;;
65162;SDS011;51751;55.714;37.436;2023-05-16T06:27:08;4.40;;;1.52;;
65162;SDS011;51751;55.714;37.436;2023-05-16T06:29:34;2.90;;;1.45;;
65162;SDS011;51751;55.714;37.436;2023-05-16T06:32:01;3.00;;;1.42;;
65162;SDS011;51751;55.714;37.436;2023-05-16T06:34:27;6.20;;;1.63;;
65162;SDS011;51751;55.714;37.436;2023-05-16T06:36:53;7.38;;;1.70;;
65162;SDS011;51751;55.714;37.436;2023-05-16T06:39:19;7.20;;;1.63;;
65162;SDS011;51751;55.714;37.436;2023-05-16T06:41:45;9.18;;;1.55;;
65162;SDS011;51751;55.714;37.436;2023-05-16T06:44:15;2.33;;;1.52;;
65162;SDS011;51751;55.714;37.436;2023-05-16T06:46:40;6.13;;;1.48;;
65162;SDS011;51751;55.714;37.436;2023-05-16T06:49:06;4.82;;;1.60;;
65162;SDS011;51751;55.714;37.436;2023-05-16T06:51:32;3.60;;;1.30;;
65162;SDS011;51751;55.714;37.436;2023-05-16T06:54:16;4.45;;;1.30;;
65162;SDS011;51751;55.714;37.436;2023-05-16T06:56:42;8.75;;;1.52;;
65162;SDS011;51751;55.714;37.436;2023-05-16T06:59:08;14.93;;;2.15;;
65162;SDS011;51751;55.714;37.436;2023-05-16T07:01:34;9.27;;;1.60;;
65162;SDS011;51751;55.714;37.436;2023-05-16T07:04:00;4.53;;;1.30;;
65162;SDS011;51751;55.714;37.436;2023-05-16T07:06:26;5.00;;;1.30;;
65162;SDS011;51751;55.714;37.436;2023-05-16T07:08:52;6.40;;;1.70;;
65162;SDS011;51751;55.714;37.436;2023-05-16T07:11:18;6.07;;;1.35;;
65162;SDS011;51751;55.714;37.436;2023-05-16T07:13:44;4.22;;;1.20;;
65162;SDS011;51751;55.714;37.436;2023-05-16T07:16:09;7.55;;;1.48;;
65162;SDS011;51751;55.714;37.436;2023-05-16T07:18:35;6.43;;;1.23;;
65162;SDS011;51751;55.714;37.436;2023-05-16T07:21:01;2.90;;;1.40;;
65162;SDS011;51751;55.714;37.436;2023-05-16T07:23:27;3.40;;;1.30;;
65162;SDS011;51751;55.714;37.436;2023-05-16T07:25:53;4.18;;;1.58;;
65162;SDS011;51751;55.714;37.436;2023-05-16T07:28:19;6.53;;;1.70;;
65162;SDS011;51751;55.714;37.436;2023-05-16T07:30:47;13.18;;;1.30;;
65162;SDS011;51751;55.714;37.436;2023-05-16T07:33:13;2.03;;;1.10;;
65162;SDS011;51751;55.714;37.436;2023-05-16T07:35:38;4.07;;;1.20;;
65162;SDS011;51751;55.714;37.436;2023-05-16T07:38:04;3.13;;;1.17;;
65162;SDS011;51751;55.714;37.436;2023-05-16T07:40:30;4.32;;;1.20;;
65162;SDS011;51751;55.714;37.436;2023-05-16T07:42:56;4.10;;;1.92;;
65162;SDS011;51751;55.714;37.436;2023-05-16T07:45:22;6.63;;;1.38;;
65162;SDS011;51751;55.714;37.436;2023-05-16T07:47:48;4.88;;;1.20;;
65162;SDS011;51751;55.714;37.436;2023-05-16T07:50:14;2.75;;;1.00;;
65162;SDS011;51751;55.714;37.436;2023-05-16T07:52:40;2.42;;;1.38;;
65162;SDS011;51751;55.714;37.436;2023-05-16T07:55:06;7.20;;;1.27;;
65162;SDS011;51751;55.714;37.436;2023-05-16T07:57:32;8.02;;;1.30;;
65162;SDS011;51751;55.714;37.436;2023-05-16T08:00:17;2.45;;;1.00;;
65162;SDS011;51751;55.714;37.436;2023-05-16T08:02:43;3.08;;;1.10;;
65162;SDS011;51751;55.714;37.436;2023-05-16T08:05:09;5.38;;;1.10;;
65162;SDS011;51751;55.714;37.436;2023-05-16T08:07:53;3.70;;;1.23;;
65162;SDS011;51751;55.714;37.436;2023-05-16T08:10:19;10.20;;;1.70;;
65162;SDS011;51751;55.714;37.436;2023-05-16T08:12:45;3.83;;;0.98;;
65162;SDS011;51751;55.714;37.436;2023-05-16T08:15:12;2.05;;;0.90;;
65162;SDS011;51751;55.714;37.436;2023-05-16T08:17:38;5.78;;;1.33;;
65162;SDS011;51751;55.714;37.436;2023-05-16T08:20:04;3.35;;;1.00;;
65162;SDS011;51751;55.714;37.436;2023-05-16T08:22:31;2.38;;;0.93;;
65162;SDS011;51751;55.714;37.436;2023-05-16T08:25:16;3.53;;;1.13;;
65162;SDS011;51751;55.714;37.436;2023-05-16T08:27:43;5.82;;;1.33;;
65162;SDS011;51751;55.714;37.436;2023-05-16T08:30:09;10.25;;;1.20;;
65162;SDS011;51751;55.714;37.436;2023-05-16T08:32:36;3.60;;;1.10;;
65162;SDS011;51751;55.714;37.436;2023-05-16T08:35:02;9.40;;;1.20;;
65162;SDS011;51751;55.714;37.436;2023-05-16T08:37:29;3.83;;;1.25;;
65162;SDS011;51751;55.714;37.436;2023-05-16T08:39:56;2.38;;;1.10;;
65162;SDS011;51751;55.714;37.436;2023-05-16T08:42:23;3.72;;;1.10;;
65162;SDS011;51751;55.714;37.436;2023-05-16T08:44:49;7.28;;;1.27;;
65162;SDS011;51751;55.714;37.436;2023-05-16T08:47:18;2.80;;;1.40;;
65162;SDS011;51751;55.714;37.436;2023-05-16T08:49:47;4.05;;;1.25;;
65162;SDS011;51751;55.714;37.436;2023-05-16T08:52:15;3.42;;;1.13;;
65162;SDS011;51751;55.714;37.436;2023-05-16T08:54:43;3.42;;;1.20;;
65162;SDS011;51751;55.714;37.436;2023-05-16T08:57:10;3.65;;;1.30;;
65162;SDS011;51751;55.714;37.436;2023-05-16T08:59:37;2.97;;;1.30;;
65162;SDS011;51751;55.714;37.436;2023-05-16T09:02:03;3.25;;;1.20;;
65162;SDS011;51751;55.714;37.436;2023-05-16T09:04:29;3.58;;;1.80;;
65162;SDS011;51751;55.714;37.436;2023-05-16T09:06:56;9.15;;;1.70;;
65162;SDS011;51751;55.714;37.436;2023-05-16T09:09:22;8.85;;;1.60;;
65162;SDS011;51751;55.714;37.436;2023-05-16T09:11:48;3.10;;;1.40;;
65162;SDS011;51751;55.714;37.436;2023-05-16T09:14:14;5.00;;;1.60;;
65162;SDS011;51751;55.714;37.436;2023-05-16T09:16:40;4.43;;;1.50;;
65162;SDS011;51751;55.714;37.436;2023-05-16T09:19:06;7.10;;;1.60;;
65162;SDS011;51751;55.714;37.436;2023-05-16T09:21:37;5.50;;;1.60;;
65162;SDS011;51751;55.714;37.436;2023-05-16T09:24:04;6.57;;;1.60;;
65162;SDS011;51751;55.714;37.436;2023-05-16T09:26:32;8.77;;;1.75;;
65162;SDS011;51751;55.714;37.436;2023-05-16T09:28:59;6.40;;;1.80;;
65162;SDS011;51751;55.714;37.436;2023-05-16T09:31:25;3.75;;;1.60;;
65162;SDS011;51751;55.714;37.436;2023-05-16T09:33:52;4.65;;;1.85;;
65162;SDS011;51751;55.714;37.436;2023-05-16T09:36:21;4.20;;;1.50;;
65162;SDS011;51751;55.714;37.436;2023-05-16T09:38:47;10.30;;;1.70;;
65162;SDS011;51751;55.714;37.436;2023-05-16T09:41:14;5.35;;;1.60;;
65162;SDS011;51751;55.714;37.436;2023-05-16T09:43:40;7.97;;;1.70;;
65162;SDS011;51751;55.714;37.436;2023-05-16T09:46:10;6.90;;;1.63;;
65162;SDS011;51751;55.714;37.436;2023-05-16T09:48:39;8.57;;;1.60;;
65162;SDS011;51751;55.714;37.436;2023-05-16T09:51:06;5.47;;;1.30;;
65162;SDS011;51751;55.714;37.436;2023-05-16T09:53:32;4.57;;;1.23;;
65162;SDS011;51751;55.714;37.436;2023-05-16T09:56:20;3.03;;;1.52;;
65162;SDS011;51751;55.714;37.436;2023-05-16T09:59:08;7.40;;;1.08;;
65162;SDS011;51751;55.714;37.436;2023-05-16T10:01:35;2.47;;;1.13;;
65162;SDS011;51751;55.714;37.436;2023-05-16T10:04:01;5.22;;;1.35;;
65162;SDS011;51751;55.714;37.436;2023-05-16T10:06:27;9.65;;;1.35;;
65162;SDS011;51751;55.714;37.436;2023-05-16T10:08:53;2.60;;;1.10;;
65162;SDS011;51751;55.714;37.436;2023-05-16T10:11:19;3.47;;;1.00;;
65162;SDS011;51751;55.714;37.436;2023-05-16T10:13:45;2.90;;;1.02;;
65162;SDS011;51751;55.714;37.436;2023-05-16T10:16:17;8.65;;;1.20;;
65162;SDS011;51751;55.714;37.436;2023-05-16T10:18:46;6.68;;;1.20;;
65162;SDS011;51751;55.714;37.436;2023-05-16T10:21:13;12.23;;;1.45;;
65162;SDS011;51751;55.714;37.436;2023-05-16T10:23:43;7.55;;;1.02;;
65162;SDS011;51751;55.714;37.436;2023-05-16T10:26:13;3.08;;;1.10;;
65162;SDS011;51751;55.714;37.436;2023-05-16T10:28:40;1.35;;;1.00;;
65162;SDS011;51751;55.714;37.436;2023-05-16T10:31:07;4.30;;;1.10;;
65162;SDS011;51751;55.714;37.436;2023-05-16T10:33:35;5.25;;;1.02;;
65162;SDS011;51751;55.714;37.436;2023-05-16T10:36:01;5.40;;;1.20;;
65162;SDS011;51751;55.714;37.436;2023-05-16T10:38:29;2.03;;;1.00;;
65162;SDS011;51751;55.714;37.436;2023-05-16T10:41:14;6.83;;;1.07;;
65162;SDS011;51751;55.714;37.436;2023-05-16T10:43:42;4.25;;;1.00;;
65162;SDS011;51751;55.714;37.436;2023-05-16T10:46:09;3.47;;;1.25;;
65162;SDS011;51751;55.714;37.436;2023-05-16T10:48:40;3.83;;;1.00;;
65162;SDS011;51751;55.714;37.436;2023-05-16T10:54:09;7.57;;;1.30;;
65162;SDS011;51751;55.714;37.436;2023-05-16T10:56:37;3.05;;;1.38;;
65162;SDS011;51751;55.714;37.436;2023-05-16T10:59:03;8.05;;;1.20;;
65162;SDS011;51751;55.714;37.436;2023-05-16T11:01:32;4.43;;;1.00;;
65162;SDS011;51751;55.714;37.436;2023-05-16T11:14:38;6.82;;;1.30;;
65162;SDS011;51751;55.714;37.436;2023-05-16T11:17:30;11.13;;;1.27;;
65162;SDS011;51751;55.714;37.436;2023-05-16T11:20:03;14.57;;;1.50;;
65162;SDS011;51751;55.714;37.436;2023-05-16T11:22:34;11.23;;;1.42;;
65162;SDS011;51751;55.714;37.436;2023-05-16T11:25:34;2.55;;;1.17;;
65162;SDS011;51751;55.714;37.436;2023-05-16T11:28:03;3.75;;;1.10;;
65162;SDS011;51751;55.714;37.436;2023-05-16T11:30:29;6.28;;;1.30;;
65162;SDS011;51751;55.714;37.436;2023-05-16T11:33:14;1.83;;;1.20;;
65162;SDS011;51751;55.714;37.436;2023-05-16T11:35:41;9.85;;;1.60;;
65162;SDS011;51751;55.714;37.436;2023-05-16T11:38:12;8.98;;;1.73;;
65162;SDS011;51751;55.714;37.436;2023-05-16T11:40:42;5.63;;;1.52;;
65162;SDS011;51751;55.714;37.436;2023-05-16T11:43:09;9.10;;;1.55;;
65162;SDS011;51751;55.714;37.436;2023-05-16T11:45:36;5.93;;;1.40;;
65162;SDS011;51751;55.714;37.436;2023-05-16T11:48:02;6.97;;;1.30;;
65162;SDS011;51751;55.714;37.436;2023-05-16T11:50:29;4.53;;;1.30;;
65162;SDS011;51751;55.714;37.436;2023-05-16T11:52:55;6.45;;;1.55;;
65162;SDS011;51751;55.714;37.436;2023-05-16T11:55:24;9.40;;;1.70;;
65162;SDS011;51751;55.714;37.436;2023-05-16T11:57:53;4.28;;;1.45;;
65162;SDS011;51751;55.714;37.436;2023-05-16T12:00:20;2.50;;;1.13;;
65162;SDS011;51751;55.714;37.436;2023-05-16T12:02:47;2.45;;;1.20;;
65162;SDS011;51751;55.714;37.436;2023-05-16T12:05:17;6.50;;;1.30;;
65162;SDS011;51751;55.714;37.436;2023-05-16T12:07:45;9.77;;;1.60;;
65162;SDS011;51751;55.714;37.436;2023-05-16T12:10:30;3.58;;;1.17;;
65162;SDS011;51751;55.714;37.436;2023-05-16T12:12:58;9.00;;;1.38;;
65162;SDS011;51751;55.714;37.436;2023-05-16T12:15:24;2.60;;;1.10;;
65162;SDS011;51751;55.714;37.436;2023-05-16T12:17:50;4.30;;;1.10;;
65162;SDS011;51751;55.714;37.436;2023-05-16T12:20:16;4.70;;;1.30;;
65162;SDS011;51751;55.714;37.436;2023-05-16T12:22:43;4.88;;;1.30;;
65162;SDS011;51751;55.714;37.436;2023-05-16T12:28:14;6.03;;;1.45;;
65162;SDS011;51751;55.714;37.436;2023-05-16T12:30:41;6.95;;;1.30;;
65162;SDS011;51751;55.714;37.436;2023-05-16T12:33:12;8.48;;;1.20;;
65162;SDS011;51751;55.714;37.436;2023-05-16T12:35:43;5.05;;;1.33;;
65162;SDS011;51751;55.714;37.436;2023-05-16T12:38:11;6.45;;;1.30;;
65162;SDS011;51751;55.714;37.436;2023-05-16T12:40:39;7.93;;;1.50;;
65162;SDS011;51751;55.714;37.436;2023-05-16T12:43:13;6.65;;;1.25;;
65162;SDS011;51751;55.714;37.436;2023-05-16T12:45:40;3.83;;;1.27;;
65162;SDS011;51751;55.714;37.436;2023-05-16T12:48:12;4.93;;;1.30;;
65162;SDS011;51751;55.714;37.436;2023-05-16T12:50:38;6.15;;;1.90;;
65162;SDS011;51751;55.714;37.436;2023-05-16T12:53:09;7.40;;;1.23;;
65162;SDS011;51751;55.714;37.436;2023-05-16T12:55:37;8.68;;;1.63;;
65162;SDS011;51751;55.714;37.436;2023-05-16T12:58:03;4.82;;;1.15;;
65162;SDS011;51751;55.714;37.436;2023-05-16T13:00:29;2.25;;;0.90;;
65162;SDS011;51751;55.714;37.436;2023-05-16T13:02:56;5.88;;;1.10;;
65162;SDS011;51751;55.714;37.436;2023-05-16T13:05:22;6.38;;;1.05;;
65162;SDS011;51751;55.714;37.436;2023-05-16T13:07:48;5.90;;;1.33;;
65162;SDS011;51751;55.714;37.436;2023-05-16T13:10:16;5.88;;;1.50;;
65162;SDS011;51751;55.714;37.436;2023-05-16T13:12:42;6.90;;;1.20;;
65162;SDS011;51751;55.714;37.436;2023-05-16T13:15:09;6.60;;;1.30;;
65162;SDS011;51751;55.714;37.436;2023-05-16T13:17:41;9.63;;;1.20;;
65162;SDS011;51751;55.714;37.436;2023-05-16T13:20:10;2.20;;;1.20;;
65162;SDS011;51751;55.714;37.436;2023-05-16T13:22:40;10.52;;;1.45;;
65162;SDS011;51751;55.714;37.436;2023-05-16T13:25:25;5.60;;;1.10;;
65162;SDS011;51751;55.714;37.436;2023-05-16T13:27:51;9.18;;;1.10;;
65162;SDS011;51751;55.714;37.436;2023-05-16T13:30:16;3.03;;;0.90;;
65162;SDS011;51751;55.714;37.436;2023-05-16T13:32:43;8.77;;;1.50;;
65162;SDS011;51751;55.714;37.436;2023-05-16T13:35:09;7.25;;;1.38;;
65162;SDS011;51751;55.714;37.436;2023-05-16T13:37:35;6.25;;;1.10;;
65162;SDS011;51751;55.714;37.436;2023-05-16T13:40:20;1.55;;;1.20;;
65162;SDS011;51751;55.714;37.436;2023-05-16T13:42:46;5.15;;;1.10;;
65162;SDS011;51751;55.714;37.436;2023-05-16T13:45:12;6.05;;;1.35;;
65162;SDS011;51751;55.714;37.436;2023-05-16T13:47:38;10.45;;;1.67;;
65162;SDS011;51751;55.714;37.436;2023-05-16T13:50:04;13.25;;;1.20;;
65162;SDS011;51751;55.714;37.436;2023-05-16T13:52:34;7.45;;;1.33;;
65162;SDS011;51751;55.714;37.436;2023-05-16T13:55:03;15.85;;;1.40;;
65162;SDS011;51751;55.714;37.436;2023-05-16T13:57:51;3.10;;;1.10;;
65162;SDS011;51751;55.714;37.436;2023-05-16T14:00:35;5.88;;;0.90;;
65162;SDS011;51751;55.714;37.436;2023-05-16T14:03:01;4.57;;;1.00;;
65162;SDS011;51751;55.714;37.436;2023-05-16T14:05:27;7.20;;;1.30;;
65162;SDS011;51751;55.714;37.436;2023-05-16T14:07:53;3.70;;;1.08;;
65162;SDS011;51751;55.714;37.436;2023-05-16T14:10:19;4.97;;;1.25;;
65162;SDS011;51751;55.714;37.436;2023-05-16T14:12:45;3.63;;;1.10;;
65162;SDS011;51751;55.714;37.436;2023-05-16T14:15:11;6.07;;;1.20;;
65162;SDS011;51751;55.714;37.436;2023-05-16T14:17:37;7.10;;;1.48;;
65162;SDS011;51751;55.714;37.436;2023-05-16T14:20:02;11.52;;;1.63;;
65162;SDS011;51751;55.714;37.436;2023-05-16T14:22:33;4.50;;;0.90;;
65162;SDS011;51751;55.714;37.436;2023-05-16T14:25:00;10.38;;;1.55;;
65162;SDS011;51751;55.714;37.436;2023-05-16T14:27:26;4.78;;;1.27;;
65162;SDS011;51751;55.714;37.436;2023-05-16T14:29:51;2.70;;;1.20;;
65162;SDS011;51751;55.714;37.436;2023-05-16T14:32:36;5.05;;;1.13;;
65162;SDS011;51751;55.714;37.436;2023-05-16T14:35:01;6.50;;;1.02;;
65162;SDS011;51751;55.714;37.436;2023-05-16T14:37:29;5.82;;;1.08;;
65162;SDS011;51751;55.714;37.436;2023-05-16T14:39:55;3.55;;;1.20;;
65162;SDS011;51751;55.714;37.436;2023-05-16T14:42:21;8.70;;;1.23;;
65162;SDS011;51751;55.714;37.436;2023-05-16T14:44:47;7.82;;;1.10;;
65162;SDS011;51751;55.714;37.436;2023-05-16T14:47:13;2.15;;;1.10;;
65162;SDS011;51751;55.714;37.436;2023-05-16T14:49:39;2.13;;;0.95;;
65162;SDS011;51751;55.714;37.436;2023-05-16T14:52:05;5.18;;;1.33;;
65162;SDS011;51751;55.714;37.436;2023-05-16T14:54:31;2.63;;;1.40;;
65162;SDS011;51751;55.714;37.436;2023-05-16T14:56:57;1.52;;;1.00;;
65162;SDS011;51751;55.714;37.436;2023-05-16T14:59:25;6.00;;;1.30;;
65162;SDS011;51751;55.714;37.436;2023-05-16T15:01:51;8.10;;;1.30;;
65162;SDS011;51751;55.714;37.436;2023-05-16T15:04:17;6.55;;;1.30;;
65162;SDS011;51751;55.714;37.436;2023-05-16T15:06:43;3.90;;;1.10;;
65162;SDS011;51751;55.714;37.436;2023-05-16T15:09:09;5.57;;;1.02;;